sensor_id;sensor_type;location;lat;lon;timestamp;pressure;altitude;pressure_sealevel;temperature;humidity
26915;BME280;14480;52.608;13.416;2023-02-15T09:44:46;141001.56;;;-12.27;100.00
26915;BME280;14480;52.608;13.416;2023-02-15T09:49:55;140970.75;;;-12.40;100.00
26915;BME280;14480;52.608;13.416;2023-02-15T09:55:06;141011.38;;;-12.23;100.00
26915;BME280;14480;52.608;13.416;2023-02-15T10:00:18;140991.69;;;-12.31;100.00
26915;BME280;14480;52.608;13.416;2023-02-15T10:05:30;141012.63;;;-12.22;100.00
26915;BME280;14480;52.608;13.416;2023-02-15T10:10:43;141108.59;;;-11.83;100.00
26915;BME280;14480;52.608;13.416;2023-02-15T10:15:55;141151.66;;;-11.65;100.00
26915;BME280;14480;52.608;13.416;2023-02-15T10:21:03;141154.09;;;-11.64;100.00
26915;BME280;14480;52.608;13.416;2023-02-15T10:26:15;141165.16;;;-11.59;100.00
26915;BME280;14480;52.608;13.416;2023-02-15T10:31:26;141173.81;;;-11.56;100.00
26915;BME280;14480;52.608;13.416;2023-02-15T10:36:32;141178.75;;;-11.54;100.00
26915;BME280;14480;52.608;13.416;2023-02-15T10:41:44;141200.91;;;-11.44;100.00
26915;BME280;14480;52.608;13.416;2023-02-15T10:47:05;141184.88;;;-11.51;100.00
26915;BME280;14480;52.608;13.416;2023-02-15T10:52:17;141171.38;;;-11.57;100.00
26915;BME280;14480;52.608;13.416;2023-02-15T10:57:26;141211.97;;;-11.40;100.00
26915;BME280;14480;52.608;13.416;2023-02-15T11:02:42;141258.78;;;-11.21;100.00
26915;BME280;14480;52.608;13.416;2023-02-15T11:07:49;141306.78;;;-11.01;100.00
26915;BME280;14480;52.608;13.416;2023-02-15T11:12:56;141348.72;;;-10.83;100.00
26915;BME280;14480;52.608;13.416;2023-02-15T11:18:05;141347.47;;;-10.84;100.00
26915;BME280;14480;52.608;13.416;2023-02-15T11:23:14;141399.25;;;-10.63;100.00
26915;BME280;14480;52.608;13.416;2023-02-15T11:28:22;141428.81;;;-10.50;100.00
26915;BME280;14480;52.608;13.416;2023-02-15T11:33:31;141476.84;;;-10.31;100.00
26915;BME280;14480;52.608;13.416;2023-02-15T11:38:38;141499.06;;;-10.21;100.00
26915;BME280;14480;52.608;13.416;2023-02-15T11:43:46;141538.50;;;-10.05;100.00
26915;BME280;14480;52.608;13.416;2023-02-15T11:48:53;141556.94;;;-9.97;100.00
26915;BME280;14480;52.608;13.416;2023-02-15T11:53:57;141654.41;;;-9.57;100.00
26915;BME280;14480;52.608;13.416;2023-02-15T11:59:05;141695.09;;;-9.41;100.00
26915;BME280;14480;52.608;13.416;2023-02-15T12:04:18;141788.91;;;-9.02;100.00
26915;BME280;14480;52.608;13.416;2023-02-15T12:09:46;141860.47;;;-8.72;100.00
26915;BME280;14480;52.608;13.416;2023-02-15T12:14:53;141883.94;;;-8.63;100.00
26915;BME280;14480;52.608;13.416;2023-02-15T12:20:00;141897.50;;;-8.57;100.00
26915;BME280;14480;52.608;13.416;2023-02-15T12:25:17;141882.72;;;-8.63;100.00
26915;BME280;14480;52.608;13.416;2023-02-15T12:30:29;141943.22;;;-8.38;100.00
26915;BME280;14480;52.608;13.416;2023-02-15T12:35:35;141977.75;;;-8.24;100.00
26915;BME280;14480;52.608;13.416;2023-02-15T12:40:40;142042.00;;;-7.98;100.00
26915;BME280;14480;52.608;13.416;2023-02-15T12:45:45;142082.75;;;-7.81;100.00
26915;BME280;14480;52.608;13.416;2023-02-15T12:50:50;142092.63;;;-7.77;100.00
26915;BME280;14480;52.608;13.416;2023-02-15T12:55:58;142101.31;;;-7.73;100.00
26915;BME280;14480;52.608;13.416;2023-02-15T13:01:03;142129.72;;;-7.61;100.00
26915;BME280;14480;52.608;13.416;2023-02-15T13:06:13;142160.63;;;-7.49;100.00
26915;BME280;14480;52.608;13.416;2023-02-15T13:11:19;142205.09;;;-7.30;100.00
26915;BME280;14480;52.608;13.416;2023-02-15T13:16:28;142240.97;;;-7.16;100.00
26915;BME280;14480;52.608;13.416;2023-02-15T13:27:37;142290.41;;;-6.95;100.00
26915;BME280;14480;52.608;13.416;2023-02-15T13:32:51;142270.66;;;-7.03;100.00
26915;BME280;14480;52.608;13.416;2023-02-15T13:38:02;142323.81;;;-6.82;100.00
26915;BME280;14480;52.608;13.416;2023-02-15T13:43:16;142326.28;;;-6.81;100.00
26915;BME280;14480;52.608;13.416;2023-02-15T13:48:36;142354.75;;;-6.69;100.00
26915;BME280;14480;52.608;13.416;2023-02-15T13:53:57;142373.25;;;-6.61;100.00
26915;BME280;14480;52.608;13.416;2023-02-15T13:59:17;142407.94;;;-6.47;100.00
26915;BME280;14480;52.608;13.416;2023-02-15T14:04:33;142334.94;;;-6.77;100.00
26915;BME280;14480;52.608;13.416;2023-02-15T14:09:43;142349.81;;;-6.71;100.00
26915;BME280;14480;52.608;13.416;2023-02-15T14:14:57;142306.50;;;-6.89;100.00
26915;BME280;14480;52.608;13.416;2023-02-15T14:20:06;142321.34;;;-6.83;100.00
26915;BME280;14480;52.608;13.416;2023-02-15T14:25:17;142380.72;;;-6.58;100.00
26915;BME280;14480;52.608;13.416;2023-02-15T14:30:24;142411.63;;;-6.45;100.00
26915;BME280;14480;52.608;13.416;2023-02-15T14:35:29;142406.69;;;-6.48;100.00
26915;BME280;14480;52.608;13.416;2023-02-15T14:40:37;142416.59;;;-6.43;100.00
26915;BME280;14480;52.608;13.416;2023-02-15T14:46:07;142394.31;;;-6.53;100.00
26915;BME280;14480;52.608;13.416;2023-02-15T14:56:37;142380.72;;;-6.58;100.00
26915;BME280;14480;52.608;13.416;2023-02-15T15:01:52;142341.13;;;-6.74;100.00
26915;BME280;14480;52.608;13.416;2023-02-15T15:06:59;142323.81;;;-6.82;100.00
26915;BME280;14480;52.608;13.416;2023-02-15T15:12:18;142268.19;;;-7.04;100.00
26915;BME280;14480;52.608;13.416;2023-02-15T15:17:54;142244.69;;;-7.14;100.00
26915;BME280;14480;52.608;13.416;2023-02-15T15:39:06;142154.44;;;-7.51;100.00
26915;BME280;14480;52.608;13.416;2023-02-15T15:49:40;142093.84;;;-7.76;100.00
26915;BME280;14480;52.608;13.416;2023-02-15T15:54:46;142058.03;;;-7.91;100.00
26915;BME280;14480;52.608;13.416;2023-02-15T15:59:51;142033.31;;;-8.01;100.00
26915;BME280;14480;52.608;13.416;2023-02-15T16:05:05;142004.91;;;-8.13;100.00
26915;BME280;14480;52.608;13.416;2023-02-15T16:10:20;141971.56;;;-8.27;100.00
26915;BME280;14480;52.608;13.416;2023-02-15T16:15:34;141930.88;;;-8.43;100.00
26915;BME280;14480;52.608;13.416;2023-02-15T16:20:38;141890.13;;;-8.60;100.00
26915;BME280;14480;52.608;13.416;2023-02-15T16:31:22;141816.06;;;-8.91;100.00
26915;BME280;14480;52.608;13.416;2023-02-15T16:36:27;141781.47;;;-9.05;100.00
26915;BME280;14480;52.608;13.416;2023-02-15T16:41:30;141759.31;;;-9.14;100.00
26915;BME280;14480;52.608;13.416;2023-02-15T16:46:38;141727.19;;;-9.27;100.00
26915;BME280;14480;52.608;13.416;2023-02-15T16:51:43;141722.25;;;-9.29;100.00
26915;BME280;14480;52.608;13.416;2023-02-15T16:56:49;141688.94;;;-9.43;100.00
26915;BME280;14480;52.608;13.416;2023-02-15T17:01:54;141648.25;;;-9.60;100.00
26915;BME280;14480;52.608;13.416;2023-02-15T17:06:59;141576.69;;;-9.89;100.00
26915;BME280;14480;52.608;13.416;2023-02-15T17:12:03;141518.75;;;-10.13;100.00
26915;BME280;14480;52.608;13.416;2023-02-15T17:17:11;141476.84;;;-10.31;100.00
26915;BME280;14480;52.608;13.416;2023-02-15T17:22:17;141455.94;;;-10.39;100.00
26915;BME280;14480;52.608;13.416;2023-02-15T17:27:23;141446.03;;;-10.43;100.00
26915;BME280;14480;52.608;13.416;2023-02-15T17:32:30;141258.78;;;-11.21;100.00
26915;BME280;14480;52.608;13.416;2023-02-15T17:37:42;141412.78;;;-10.57;100.00
26915;BME280;14480;52.608;13.416;2023-02-15T17:42:47;141327.75;;;-10.92;100.00
26915;BME280;14480;52.608;13.416;2023-02-15T17:47:52;141215.66;;;-11.38;100.00
26915;BME280;14480;52.608;13.416;2023-02-15T17:52:56;141143.03;;;-11.68;100.00
26915;BME280;14480;52.608;13.416;2023-02-15T17:58:04;141116.00;;;-11.80;100.00
26915;BME280;14480;52.608;13.416;2023-02-15T18:03:12;141103.66;;;-11.85;100.00
26915;BME280;14480;52.608;13.416;2023-02-15T18:08:36;141114.78;;;-11.80;100.00
26915;BME280;14480;52.608;13.416;2023-02-15T18:13:56;141122.09;;;-11.77;100.00
26915;BME280;14480;52.608;13.416;2023-02-15T18:19:04;141112.28;;;-11.81;100.00
26915;BME280;14480;52.608;13.416;2023-02-15T18:24:12;141123.34;;;-11.77;100.00
26915;BME280;14480;52.608;13.416;2023-02-15T18:29:16;141077.81;;;-11.95;100.00
26915;BME280;14480;52.608;13.416;2023-02-15T18:34:27;141015.06;;;-12.21;100.00
26915;BME280;14480;52.608;13.416;2023-02-15T18:39:35;140936.31;;;-12.54;100.00
26915;BME280;14480;52.608;13.416;2023-02-15T18:44:42;140976.94;;;-12.37;100.00
26915;BME280;14480;52.608;13.416;2023-02-15T18:49:47;140956.03;;;-12.46;100.00
26915;BME280;14480;52.608;13.416;2023-02-15T18:54:52;140937.53;;;-12.53;100.00
26915;BME280;14480;52.608;13.416;2023-02-15T18:59:56;140930.19;;;-12.56;100.00
26915;BME280;14480;52.608;13.416;2023-02-15T19:05:03;140911.72;;;-12.64;100.00
26915;BME280;14480;52.608;13.416;2023-02-15T19:10:12;140879.75;;;-12.77;100.00
26915;BME280;14480;52.608;13.416;2023-02-15T19:15:19;140845.31;;;-12.91;100.00
26915;BME280;14480;52.608;13.416;2023-02-15T19:20:25;140808.44;;;-13.07;100.00
26915;BME280;14480;52.608;13.416;2023-02-15T19:25:30;140755.63;;;-13.29;100.00
26915;BME280;14480;52.608;13.416;2023-02-15T19:30:37;140724.91;;;-13.41;100.00
26915;BME280;14480;52.608;13.416;2023-02-15T19:35:43;140708.91;;;-13.48;100.00
26915;BME280;14480;52.608;13.416;2023-02-15T19:40:48;140688.00;;;-13.57;100.00
26915;BME280;14480;52.608;13.416;2023-02-15T19:45:52;140701.53;;;-13.51;100.00
26915;BME280;14480;52.608;13.416;2023-02-15T19:51:00;140700.31;;;-13.51;100.00
26915;BME280;14480;52.608;13.416;2023-02-15T19:56:07;140704.00;;;-13.50;100.00
26915;BME280;14480;52.608;13.416;2023-02-15T20:01:14;140710.13;;;-13.47;100.00
26915;BME280;14480;52.608;13.416;2023-02-15T20:06:20;140692.91;;;-13.55;100.00
26915;BME280;14480;52.608;13.416;2023-02-15T20:11:27;140679.41;;;-13.60;100.00
26915;BME280;14480;52.608;13.416;2023-02-15T20:16:30;140659.75;;;-13.68;100.00
26915;BME280;14480;52.608;13.416;2023-02-15T20:21:35;140635.16;;;-13.78;100.00
26915;BME280;14480;52.608;13.416;2023-02-15T20:26:39;140614.31;;;-13.87;100.00
26915;BME280;14480;52.608;13.416;2023-02-15T20:31:43;140599.53;;;-13.93;100.00
26915;BME280;14480;52.608;13.416;2023-02-15T20:36:49;140593.41;;;-13.96;100.00
26915;BME280;14480;52.608;13.416;2023-02-15T20:41:53;140582.38;;;-14.00;100.00
26915;BME280;14480;52.608;13.416;2023-02-15T20:47:01;140557.81;;;-14.10;100.00
26915;BME280;14480;52.608;13.416;2023-02-15T20:52:12;140533.22;;;-14.21;100.00
26915;BME280;14480;52.608;13.416;2023-02-15T20:57:21;140495.13;;;-14.36;100.00
26915;BME280;14480;52.608;13.416;2023-02-15T21:02:26;140481.66;;;-14.42;100.00
26915;BME280;14480;52.608;13.416;2023-02-15T21:07:31;140446.09;;;-14.57;100.00
26915;BME280;14480;52.608;13.416;2023-02-15T21:12:35;140422.78;;;-14.66;100.00
26915;BME280;14480;52.608;13.416;2023-02-15T21:17:38;140421.53;;;-14.67;100.00
26915;BME280;14480;52.608;13.416;2023-02-15T21:22:43;140416.66;;;-14.69;100.00
26915;BME280;14480;52.608;13.416;2023-02-15T21:27:47;140430.13;;;-14.63;100.00
26915;BME280;14480;52.608;13.416;2023-02-15T21:32:51;140437.47;;;-14.60;100.00
26915;BME280;14480;52.608;13.416;2023-02-15T21:37:56;140441.16;;;-14.59;100.00
26915;BME280;14480;52.608;13.416;2023-02-15T21:43:01;140442.44;;;-14.58;100.00
26915;BME280;14480;52.608;13.416;2023-02-15T21:48:25;140424.00;;;-14.66;100.00
26915;BME280;14480;52.608;13.416;2023-02-15T21:53:31;140390.88;;;-14.80;100.00
26915;BME280;14480;52.608;13.416;2023-02-15T21:58:35;140356.47;;;-14.94;100.00
26915;BME280;14480;52.608;13.416;2023-02-15T22:03:39;140324.56;;;-15.07;100.00
26915;BME280;14480;52.608;13.416;2023-02-15T22:08:45;140285.31;;;-15.23;100.00
26915;BME280;14480;52.608;13.416;2023-02-15T22:13:50;140286.53;;;-15.23;100.00
26915;BME280;14480;52.608;13.416;2023-02-15T22:18:53;140282.88;;;-15.24;100.00
26915;BME280;14480;52.608;13.416;2023-02-15T22:23:58;140287.78;;;-15.22;100.00
26915;BME280;14480;52.608;13.416;2023-02-15T22:29:02;140295.13;;;-15.19;100.00
26915;BME280;14480;52.608;13.416;2023-02-15T22:34:05;140300.03;;;-15.17;100.00
26915;BME280;14480;52.608;13.416;2023-02-15T22:39:11;140291.44;;;-15.21;100.00
26915;BME280;14480;52.608;13.416;2023-02-15T22:44:15;140244.81;;;-15.40;100.00
